Time;durP1;ratioP1;P1;durP2;ratioP2;P2;SDS_P1;SDS_P2;PMS_P1;PMS_P2;Temp;Humidity;BMP_temperature;BMP_pressure;BME280_temperature;BME280_humidity;BME280_pressure;Samples;Min_cycle;Max_cycle;Signal;HPM_P1;HPM_P2
2022/01/04 00:01:47;;;;;;;0.30;0.20;;;9.30;99.90;;;;;;5071139;28;20452;-84
2022/01/04 00:04:14;;;;;;;0.30;0.20;;;9.30;99.90;;;;;;5072707;28;20656;-85
2022/01/04 00:06:41;;;;;;;0.30;0.20;;;9.40;99.90;;;;;;5062810;28;20553;-87
2022/01/04 00:09:10;;;;;;;0.33;0.20;;;9.30;99.90;;;;;;5069316;28;21076;-86
2022/01/04 00:11:57;;;;;;;0.30;0.20;;;9.30;99.90;;;;;;5070344;28;20432;-88
2022/01/04 00:14:24;;;;;;;0.30;0.20;;;9.20;99.90;;;;;;5070864;28;20511;-87
2022/01/04 00:16:55;;;;;;;0.30;0.20;;;9.20;99.90;;;;;;5064022;28;20444;-85
2022/01/04 00:19:22;;;;;;;0.30;0.20;;;9.20;99.90;;;;;;5068701;28;20548;-86
2022/01/04 00:21:49;;;;;;;0.30;0.10;;;9.20;99.90;;;;;;5065575;28;20794;-85
2022/01/04 00:24:18;;;;;;;0.30;0.10;;;9.20;99.90;;;;;;5070745;28;20436;-85
2022/01/04 00:26:44;;;;;;;0.30;0.10;;;9.20;99.90;;;;;;5090894;28;20531;-86
2022/01/04 00:29:11;;;;;;;0.30;0.20;;;9.10;99.90;;;;;;5085125;28;20443;-85
2022/01/04 00:31:38;;;;;;;0.30;0.10;;;9.10;99.90;;;;;;5094327;28;20428;-85
2022/01/04 00:34:05;;;;;;;0.30;0.20;;;9.10;99.90;;;;;;5073692;28;20518;-85
2022/01/04 00:36:33;;;;;;;0.30;0.20;;;9.10;99.90;;;;;;5063917;28;20489;-88
2022/01/04 00:39:00;;;;;;;0.30;0.10;;;9.00;99.90;;;;;;5069762;28;20458;-85
2022/01/04 00:41:28;;;;;;;0.30;0.20;;;9.00;99.90;;;;;;5061847;28;20939;-88
2022/01/04 00:43:55;;;;;;;0.30;0.20;;;8.90;99.90;;;;;;5069855;28;20494;-85
2022/01/04 00:46:22;;;;;;;0.30;0.10;;;9.00;99.90;;;;;;5070138;28;20480;-87
2022/01/04 00:51:34;;;;;;;0.30;0.20;;;9.10;99.90;;;;;;5067736;28;20430;-87
2022/01/04 00:54:01;;;;;;;0.30;0.20;;;9.10;99.90;;;;;;5068547;28;20544;-85
2022/01/04 00:56:29;;;;;;;0.30;0.20;;;9.10;99.90;;;;;;5062330;28;20452;-87
2022/01/04 00:58:56;;;;;;;0.30;0.20;;;9.00;99.90;;;;;;5069523;28;20456;-85
2022/01/04 01:01:24;;;;;;;0.30;0.20;;;8.90;99.90;;;;;;5065200;28;20575;-88
2022/01/04 01:03:51;;;;;;;0.30;0.10;;;8.90;99.90;;;;;;5061349;28;21056;-86
2022/01/04 01:06:18;;;;;;;0.30;0.10;;;8.90;99.90;;;;;;5067533;28;21050;-87
2022/01/04 01:08:45;;;;;;;0.30;0.10;;;8.90;99.90;;;;;;5067126;28;20447;-88
2022/01/04 01:11:13;;;;;;;0.30;0.10;;;8.90;99.90;;;;;;5062917;28;20543;-86
2022/01/04 01:13:41;;;;;;;0.30;0.10;;;8.90;99.90;;;;;;5066758;28;20742;-86
2022/01/04 01:16:09;;;;;;;0.30;0.10;;;8.90;99.90;;;;;;5073411;28;20455;-86
2022/01/04 01:18:37;;;;;;;0.30;0.20;;;8.90;99.90;;;;;;5061281;28;20517;-88
2022/01/04 01:21:06;;;;;;;0.30;0.10;;;8.90;99.90;;;;;;5064836;28;20978;-86
2022/01/04 01:23:34;;;;;;;0.30;0.20;;;8.80;99.90;;;;;;5061796;28;20465;-86
2022/01/04 01:26:02;;;;;;;0.30;0.10;;;8.80;99.90;;;;;;5064639;28;20775;-87
2022/01/04 01:28:29;;;;;;;0.30;0.20;;;8.70;99.90;;;;;;5063997;28;20447;-86
2022/01/04 01:30:58;;;;;;;0.30;0.20;;;8.70;99.90;;;;;;5060320;28;20646;-89
2022/01/04 01:33:27;;;;;;;0.30;0.10;;;8.50;99.90;;;;;;5068884;28;20479;-86
2022/01/04 01:35:54;;;;;;;0.30;0.10;;;8.40;99.90;;;;;;5064474;28;20487;-86
2022/01/04 01:38:21;;;;;;;0.30;0.10;;;8.30;99.90;;;;;;5058597;28;20514;-86
2022/01/04 01:40:48;;;;;;;0.30;0.20;;;8.40;99.90;;;;;;5060649;28;20525;-86
2022/01/04 01:43:16;;;;;;;0.80;0.60;;;8.40;99.90;;;;;;5057818;28;20452;-86
2022/01/04 01:45:43;;;;;;;0.30;0.10;;;8.30;99.90;;;;;;5059233;28;20456;-88
2022/01/04 01:48:12;;;;;;;0.30;0.10;;;8.30;99.90;;;;;;5068913;28;21095;-85
2022/01/04 01:50:39;;;;;;;0.30;0.20;;;8.40;99.90;;;;;;5066095;28;20448;-86
2022/01/04 01:53:06;;;;;;;0.30;0.20;;;8.40;99.90;;;;;;5062999;28;20990;-85
2022/01/04 01:55:34;;;;;;;0.30;0.10;;;8.40;99.90;;;;;;5063241;28;21013;-85
2022/01/04 01:58:01;;;;;;;0.30;0.20;;;8.40;99.90;;;;;;5069087;28;20501;-85
2022/01/04 02:00:30;;;;;;;0.30;0.10;;;8.40;99.90;;;;;;5059631;28;20514;-86
2022/01/04 02:02:59;;;;;;;0.30;0.20;;;8.20;99.90;;;;;;5081236;28;20797;-87
2022/01/04 02:05:28;;;;;;;0.30;0.20;;;8.10;99.90;;;;;;5082331;28;20471;-85
2022/01/04 02:07:56;;;;;;;0.30;0.10;;;8.00;99.90;;;;;;5077073;28;20453;-86
2022/01/04 02:10:23;;;;;;;0.30;0.10;;;7.80;99.90;;;;;;5082803;28;20437;-86
2022/01/04 02:12:50;;;;;;;0.30;0.20;;;7.80;99.90;;;;;;5066619;28;20535;-89
2022/01/04 02:15:20;;;;;;;0.30;0.10;;;7.70;99.90;;;;;;5066107;28;20947;-87
2022/01/04 02:17:47;;;;;;;0.30;0.20;;;7.60;99.90;;;;;;5069163;28;20459;-90
2022/01/04 02:20:16;;;;;;;0.40;0.20;;;7.60;99.90;;;;;;5065007;28;20477;-86
2022/01/04 02:22:44;;;;;;;0.30;0.20;;;7.80;99.90;;;;;;5066854;28;20498;-86
2022/01/04 02:25:12;;;;;;;0.30;0.17;;;7.80;99.90;;;;;;5061118;28;20517;-86
2022/01/04 02:27:41;;;;;;;0.30;0.10;;;7.80;99.90;;;;;;5049054;28;20845;-89
2022/01/04 02:30:11;;;;;;;0.30;0.10;;;7.70;99.90;;;;;;5064354;28;20493;-87
2022/01/04 02:32:38;;;;;;;0.30;0.20;;;7.60;99.90;;;;;;5062923;28;20513;-89
2022/01/04 02:35:06;;;;;;;0.30;0.17;;;7.50;99.90;;;;;;5067543;28;20468;-86
2022/01/04 02:37:35;;;;;;;0.30;0.20;;;7.60;99.90;;;;;;5051246;28;20985;-87
2022/01/04 02:40:02;;;;;;;0.30;0.20;;;7.50;99.90;;;;;;5063863;28;20509;-86
2022/01/04 02:42:29;;;;;;;0.30;0.20;;;7.40;99.90;;;;;;5068524;28;20459;-86
2022/01/04 02:44:58;;;;;;;0.30;0.10;;;7.40;99.90;;;;;;5063436;28;20496;-86
2022/01/04 02:47:25;;;;;;;0.30;0.17;;;7.30;99.90;;;;;;5057893;28;20484;-86
2022/01/04 02:49:52;;;;;;;0.30;0.10;;;7.40;99.90;;;;;;5059504;28;20987;-88
2022/01/04 02:52:19;;;;;;;0.30;0.20;;;7.50;99.90;;;;;;5066785;28;20505;-87
2022/01/04 02:54:47;;;;;;;0.30;0.20;;;7.40;99.90;;;;;;5061431;28;20557;-86
2022/01/04 02:57:14;;;;;;;0.30;0.20;;;7.40;99.90;;;;;;5064738;28;20922;-86
2022/01/04 02:59:41;;;;;;;0.30;0.10;;;7.30;99.90;;;;;;5056097;28;20449;-86
2022/01/04 03:02:08;;;;;;;0.30;0.10;;;7.30;99.90;;;;;;5060458;28;21022;-87
2022/01/04 03:04:35;;;;;;;0.30;0.10;;;7.30;99.90;;;;;;5066302;28;20994;-88
2022/01/04 03:07:03;;;;;;;0.30;0.10;;;7.30;99.90;;;;;;5060294;28;20980;-86
2022/01/04 03:09:30;;;;;;;0.30;0.10;;;7.20;99.90;;;;;;5068279;28;21011;-89
2022/01/04 03:11:58;;;;;;;0.37;0.23;;;7.10;99.90;;;;;;5067911;28;20441;-86
2022/01/04 03:14:26;;;;;;;0.30;0.20;;;7.30;99.90;;;;;;5067811;28;21015;-87
2022/01/04 03:16:52;;;;;;;0.30;0.10;;;7.30;99.90;;;;;;5068147;28;20451;-87
2022/01/04 03:19:23;;;;;;;0.30;0.20;;;7.30;99.90;;;;;;5066726;28;20530;-86
2022/01/04 03:21:50;;;;;;;0.30;0.20;;;7.20;99.90;;;;;;5069913;28;20505;-88
2022/01/04 03:24:17;;;;;;;0.30;0.20;;;7.30;99.90;;;;;;5068797;28;20462;-91
2022/01/04 03:26:45;;;;;;;0.30;0.10;;;7.30;99.90;;;;;;5072108;28;20438;-87
2022/01/04 03:29:15;;;;;;;0.30;0.10;;;7.30;99.90;;;;;;5057676;28;20450;-87
2022/01/04 03:31:43;;;;;;;2.43;0.73;;;7.20;99.90;;;;;;5055509;28;20446;-86
2022/01/04 03:34:11;;;;;;;0.30;0.10;;;7.20;99.90;;;;;;5062819;28;20557;-89
2022/01/04 03:36:39;;;;;;;0.30;0.10;;;7.30;99.90;;;;;;5073827;28;20528;-87
2022/01/04 03:39:08;;;;;;;0.40;0.30;;;7.20;99.90;;;;;;5078628;28;20435;-90
2022/01/04 03:41:38;;;;;;;0.30;0.20;;;7.20;99.90;;;;;;5096065;28;20451;-86
2022/01/04 03:44:06;;;;;;;0.30;0.10;;;7.20;99.90;;;;;;5089410;28;20482;-85
2022/01/04 03:46:34;;;;;;;0.30;0.20;;;7.20;99.90;;;;;;5075135;28;20446;-86
2022/01/04 03:49:01;;;;;;;0.30;0.10;;;7.20;99.90;;;;;;5072849;28;20450;-87
2022/01/04 03:51:28;;;;;;;0.30;0.20;;;7.10;99.90;;;;;;5060524;28;20502;-87
2022/01/04 03:53:56;;;;;;;0.30;0.10;;;7.00;99.90;;;;;;5067262;28;20483;-86
2022/01/04 03:56:23;;;;;;;0.30;0.10;;;7.00;99.90;;;;;;5072421;28;20492;-86
2022/01/04 03:58:50;;;;;;;0.30;0.20;;;6.90;99.90;;;;;;5071527;28;20451;-87
2022/01/04 04:01:18;;;;;;;0.30;0.10;;;7.00;99.90;;;;;;5061164;28;20830;-87
2022/01/04 04:03:47;;;;;;;0.30;0.13;;;7.00;99.90;;;;;;5064120;28;20472;-87
2022/01/04 04:06:14;;;;;;;0.30;0.10;;;7.10;99.90;;;;;;5071483;28;20913;-86
2022/01/04 04:08:41;;;;;;;0.30;0.20;;;7.10;99.90;;;;;;5069747;28;20902;-87
2022/01/04 04:11:08;;;;;;;0.30;0.10;;;7.10;99.90;;;;;;5070720;28;20541;-87
2022/01/04 04:13:35;;;;;;;0.30;0.10;;;7.10;99.90;;;;;;5067288;28;20795;-87
2022/01/04 04:16:02;;;;;;;0.30;0.20;;;7.00;99.90;;;;;;5051369;28;20448;-90
2022/01/04 04:18:29;;;;;;;0.30;0.10;;;7.10;99.90;;;;;;5055087;28;20458;-86
2022/01/04 04:20:57;;;;;;;0.30;0.10;;;7.10;99.90;;;;;;5071107;28;20440;-91
2022/01/04 04:23:24;;;;;;;0.30;0.10;;;7.10;99.90;;;;;;5070354;28;20464;-88
2022/01/04 04:25:51;;;;;;;0.30;0.20;;;7.10;99.90;;;;;;5071010;28;20561;-87
2022/01/04 04:28:18;;;;;;;0.30;0.13;;;7.10;99.90;;;;;;5070930;28;20504;-87
2022/01/04 04:30:45;;;;;;;0.30;0.20;;;7.00;99.90;;;;;;5069319;28;20466;-86
2022/01/04 04:33:12;;;;;;;0.30;0.10;;;7.10;99.90;;;;;;5062460;28;21233;-90
2022/01/04 04:35:39;;;;;;;0.30;0.10;;;7.10;99.90;;;;;;5062432;28;20473;-90
2022/01/04 04:38:08;;;;;;;1.63;0.40;;;7.10;99.90;;;;;;5065765;28;20514;-91
2022/01/04 04:40:36;;;;;;;0.30;0.20;;;7.10;99.90;;;;;;5065226;28;20444;-86
2022/01/04 04:43:03;;;;;;;0.30;0.13;;;7.10;99.90;;;;;;5069528;28;20516;-87
2022/01/04 04:45:30;;;;;;;0.30;0.10;;;7.20;99.90;;;;;;5068143;28;20497;-88
2022/01/04 04:47:57;;;;;;;0.30;0.20;;;7.20;99.90;;;;;;5063394;28;20448;-87
2022/01/04 04:50:24;;;;;;;0.30;0.10;;;7.00;99.90;;;;;;5064397;28;20529;-87
2022/01/04 04:52:51;;;;;;;0.30;0.10;;;7.00;99.90;;;;;;5069286;28;20889;-91
2022/01/04 04:55:19;;;;;;;0.30;0.20;;;6.90;99.90;;;;;;5069023;28;21013;-89
2022/01/04 04:57:46;;;;;;;0.30;0.10;;;6.90;99.90;;;;;;5066838;28;20978;-86
2022/01/04 05:00:14;;;;;;;0.30;0.20;;;6.90;99.90;;;;;;5070284;28;20438;-87
2022/01/04 05:02:41;;;;;;;0.30;0.20;;;6.80;99.90;;;;;;5068023;28;20436;-92
2022/01/04 05:05:09;;;;;;;0.30;0.20;;;6.90;99.90;;;;;;5066433;28;20944;-87
2022/01/04 05:07:36;;;;;;;0.30;0.20;;;6.80;99.90;;;;;;5070184;28;20436;-87
2022/01/04 05:10:05;;;;;;;0.30;0.20;;;6.80;99.90;;;;;;5070081;28;20534;-87
2022/01/04 05:12:34;;;;;;;0.30;0.10;;;6.80;99.90;;;;;;5068342;28;20530;-89
2022/01/04 05:15:01;;;;;;;0.30;0.10;;;6.80;99.90;;;;;;5069326;28;20715;-87
2022/01/04 05:17:28;;;;;;;0.30;0.10;;;6.80;99.90;;;;;;5070446;28;20443;-86
2022/01/04 05:19:55;;;;;;;0.30;0.20;;;6.80;99.90;;;;;;5066833;28;20460;-86
2022/01/04 05:22:22;;;;;;;0.30;0.10;;;6.90;99.90;;;;;;5070579;28;20452;-90
2022/01/04 05:24:49;;;;;;;0.30;0.20;;;6.80;99.90;;;;;;5067449;28;20451;-86
2022/01/04 05:27:16;;;;;;;0.30;0.10;;;6.70;99.90;;;;;;5064191;28;20451;-86
2022/01/04 05:29:44;;;;;;;0.30;0.10;;;6.60;99.90;;;;;;5070094;28;20508;-86
2022/01/04 05:32:11;;;;;;;0.30;0.10;;;6.70;99.90;;;;;;5066600;28;20925;-87
2022/01/04 05:34:38;;;;;;;0.30;0.10;;;6.70;99.90;;;;;;5065676;28;20486;-89
2022/01/04 05:37:05;;;;;;;0.30;0.10;;;6.70;99.90;;;;;;5065838;28;20480;-91
2022/01/04 05:39:32;;;;;;;0.30;0.10;;;6.60;99.90;;;;;;5067358;28;20435;-91
2022/01/04 05:42:00;;;;;;;0.30;0.10;;;6.60;99.90;;;;;;5054302;28;20460;-95
2022/01/04 05:44:27;;;;;;;0.30;0.10;;;6.60;99.90;;;;;;5049901;28;20557;-87
2022/01/04 05:46:56;;;;;;;0.30;0.20;;;6.60;99.90;;;;;;5050594;28;20445;-89
2022/01/04 05:49:23;;;;;;;0.30;0.10;;;6.60;99.90;;;;;;5049531;28;21019;-86
2022/01/04 05:51:50;;;;;;;0.30;0.10;;;6.60;99.90;;;;;;5049207;28;20444;-86
2022/01/04 05:54:17;;;;;;;0.30;0.10;;;6.60;99.90;;;;;;5063865;28;20539;-89
2022/01/04 05:56:44;;;;;;;0.30;0.20;;;6.70;99.90;;;;;;5069822;28;20499;-88
2022/01/04 05:59:11;;;;;;;0.30;0.20;;;6.70;99.90;;;;;;5069502;28;20447;-89
2022/01/04 06:01:38;;;;;;;0.30;0.17;;;6.60;99.90;;;;;;5069596;28;20446;-88
2022/01/04 06:04:07;;;;;;;0.30;0.10;;;6.70;99.90;;;;;;5056630;28;21198;-89
2022/01/04 06:06:34;;;;;;;0.30;0.20;;;6.70;99.90;;;;;;5063909;28;20842;-88
2022/01/04 06:09:00;;;;;;;0.30;0.10;;;6.80;99.90;;;;;;5070090;28;20504;-86
2022/01/04 06:11:56;;;;;;;0.30;0.10;;;6.80;99.90;;;;;;5068412;28;20521;-87
2022/01/04 06:17:09;;;;;;;0.30;0.10;;;6.60;99.90;;;;;;5051350;28;20474;-89
2022/01/04 06:19:38;;;;;;;0.30;0.10;;;6.60;99.90;;;;;;5049234;28;20653;-88
2022/01/04 06:22:05;;;;;;;0.30;0.10;;;6.60;99.90;;;;;;5049229;28;20441;-87
2022/01/04 06:24:32;;;;;;;0.30;0.20;;;6.50;99.90;;;;;;5061427;28;20615;-87
2022/01/04 06:26:59;;;;;;;0.30;0.17;;;6.60;99.90;;;;;;5072826;28;20451;-87
2022/01/04 06:29:27;;;;;;;0.30;0.20;;;6.70;99.90;;;;;;5061319;28;20439;-88
2022/01/04 06:31:53;;;;;;;0.30;0.17;;;6.60;99.90;;;;;;5053721;28;20464;-86
2022/01/04 06:34:20;;;;;;;0.30;0.13;;;6.60;99.90;;;;;;5068309;28;20946;-87
2022/01/04 06:36:49;;;;;;;0.30;0.10;;;6.60;99.90;;;;;;5072751;28;20545;-87
2022/01/04 06:39:16;;;;;;;0.30;0.20;;;6.60;99.90;;;;;;5073217;28;20444;-86
2022/01/04 06:41:43;;;;;;;0.30;0.20;;;6.60;99.90;;;;;;5055989;28;20522;-88
2022/01/04 06:44:10;;;;;;;0.30;0.10;;;6.60;99.90;;;;;;5053011;28;20444;-84
2022/01/04 06:46:38;;;;;;;0.30;0.10;;;6.60;99.90;;;;;;5054967;28;20510;-90
2022/01/04 06:49:05;;;;;;;0.30;0.10;;;6.60;99.90;;;;;;5052995;28;21992;-89
2022/01/04 06:51:32;;;;;;;0.30;0.10;;;6.70;99.90;;;;;;5052984;28;20450;-88
2022/01/04 06:54:00;;;;;;;0.30;0.20;;;6.70;99.90;;;;;;5053639;28;20495;-89
2022/01/04 06:56:27;;;;;;;0.30;0.10;;;6.70;99.90;;;;;;5052915;28;20465;-90
2022/01/04 06:58:54;;;;;;;0.30;0.20;;;6.70;99.90;;;;;;5052934;28;20979;-87
2022/01/04 07:01:22;;;;;;;0.30;0.10;;;6.80;99.90;;;;;;5053479;28;20509;-88
2022/01/04 07:03:49;;;;;;;0.30;0.10;;;6.80;99.90;;;;;;5061056;28;20445;-88
2022/01/04 07:06:16;;;;;;;0.30;0.10;;;6.90;99.90;;;;;;5053843;28;20576;-88
2022/01/04 07:08:43;;;;;;;0.30;0.20;;;6.90;99.90;;;;;;5054478;28;20453;-88
2022/01/04 07:11:11;;;;;;;0.30;0.10;;;6.80;99.90;;;;;;5072076;28;20453;-87
2022/01/04 07:13:38;;;;;;;0.30;0.10;;;6.80;99.90;;;;;;5059442;28;20525;-88
2022/01/04 07:16:06;;;;;;;0.30;0.20;;;6.90;99.90;;;;;;5051916;28;20510;-88
2022/01/04 07:18:33;;;;;;;0.30;0.10;;;6.90;99.90;;;;;;5052530;28;20495;-88
2022/01/04 07:21:00;;;;;;;0.30;0.10;;;6.90;99.90;;;;;;5051522;28;20881;-88
2022/01/04 07:23:27;;;;;;;0.30;0.20;;;6.90;99.90;;;;;;5052384;28;20440;-89
2022/01/04 07:25:54;;;;;;;6.97;1.03;;;6.90;99.90;;;;;;5052165;28;20886;-90
2022/01/04 07:28:23;;;;;;;0.30;0.20;;;6.90;99.90;;;;;;5052866;28;20523;-89
2022/01/04 07:30:50;;;;;;;0.30;0.10;;;6.90;99.90;;;;;;5052458;28;20894;-90
2022/01/04 07:33:18;;;;;;;0.30;0.10;;;6.80;99.90;;;;;;5058055;28;20522;-91
2022/01/04 07:35:45;;;;;;;0.30;0.10;;;6.80;99.90;;;;;;5061784;28;20578;-89
2022/01/04 07:38:13;;;;;;;0.30;0.20;;;6.80;99.90;;;;;;5052003;28;20456;-86
2022/01/04 07:40:40;;;;;;;0.30;0.10;;;6.90;99.90;;;;;;5051931;28;20464;-87
2022/01/04 07:43:07;;;;;;;0.30;0.10;;;6.80;99.90;;;;;;5052783;28;20857;-88
2022/01/04 07:45:35;;;;;;;0.30;0.20;;;6.90;99.90;;;;;;5052127;28;20498;-86
2022/01/04 07:48:03;;;;;;;0.87;0.30;;;7.00;99.90;;;;;;5052272;28;20497;-86
2022/01/04 07:50:30;;;;;;;0.30;0.20;;;7.00;99.90;;;;;;5053390;28;21028;-85
2022/01/04 07:52:57;;;;;;;0.30;0.10;;;7.00;99.90;;;;;;5065410;28;20974;-87
2022/01/04 07:55:24;;;;;;;0.30;0.10;;;7.00;99.90;;;;;;5070097;28;20479;-89
2022/01/04 07:57:51;;;;;;;3.07;0.40;;;7.10;99.90;;;;;;5068415;28;20527;-88
2022/01/04 08:00:18;;;;;;;0.30;0.10;;;7.10;99.90;;;;;;5071049;28;20520;-88
2022/01/04 08:02:46;;;;;;;0.30;0.10;;;7.10;99.90;;;;;;5061761;28;20516;-87
2022/01/04 08:05:13;;;;;;;0.30;0.10;;;7.10;99.90;;;;;;5071802;28;20986;-86
2022/01/04 08:07:41;;;;;;;0.30;0.20;;;7.20;99.90;;;;;;5072200;28;20450;-86
2022/01/04 08:10:09;;;;;;;0.40;0.40;;;7.20;99.90;;;;;;5071681;28;20447;-88
2022/01/04 08:12:36;;;;;;;0.30;0.10;;;7.20;99.90;;;;;;5056955;28;20535;-89
2022/01/04 08:15:04;;;;;;;0.30;0.20;;;7.20;99.90;;;;;;5051778;28;20608;-86
2022/01/04 08:17:31;;;;;;;0.30;0.20;;;7.30;99.90;;;;;;5051777;28;20520;-86
2022/01/04 08:20:00;;;;;;;0.50;0.20;;;7.30;99.90;;;;;;5051776;28;20786;-86
2022/01/04 08:22:31;;;;;;;0.30;0.10;;;7.40;99.90;;;;;;5056831;28;20467;-86
2022/01/04 08:25:00;;;;;;;0.30;0.10;;;7.30;99.90;;;;;;5071304;28;20451;-89
2022/01/04 08:27:27;;;;;;;0.30;0.10;;;7.30;99.90;;;;;;5060981;28;20461;-88
2022/01/04 08:29:54;;;;;;;0.30;0.10;;;7.40;99.90;;;;;;5051339;28;20445;-85
2022/01/04 08:32:21;;;;;;;0.30;0.20;;;7.30;99.90;;;;;;5054911;28;21299;-87
2022/01/04 08:34:48;;;;;;;0.30;0.20;;;7.50;99.90;;;;;;5052160;28;20483;-86
2022/01/04 08:37:18;;;;;;;0.30;0.10;;;7.60;99.90;;;;;;5051005;28;20460;-89
2022/01/04 08:39:45;;;;;;;0.30;0.10;;;7.70;99.90;;;;;;5051806;28;20479;-86
2022/01/04 08:42:13;;;;;;;0.30;0.10;;;7.60;99.90;;;;;;5050996;28;21061;-87
2022/01/04 08:44:40;;;;;;;0.30;0.20;;;7.50;99.90;;;;;;5052799;28;20436;-88
2022/01/04 08:47:08;;;;;;;0.30;0.13;;;7.50;99.90;;;;;;5057942;28;20449;-88
2022/01/04 08:49:35;;;;;;;0.30;0.10;;;7.60;99.90;;;;;;5050426;28;20916;-88
2022/01/04 08:52:03;;;;;;;0.30;0.20;;;7.60;99.90;;;;;;5061344;28;21004;-89
2022/01/04 08:54:31;;;;;;;0.30;0.20;;;7.70;99.90;;;;;;5051644;28;20441;-88
2022/01/04 08:56:58;;;;;;;0.30;0.20;;;7.80;99.90;;;;;;5050324;28;20491;-88
2022/01/04 08:59:26;;;;;;;0.30;0.13;;;7.80;99.90;;;;;;5050468;28;20931;-88
2022/01/04 09:01:54;;;;;;;0.30;0.20;;;7.70;99.90;;;;;;5050996;28;20959;-88
2022/01/04 09:04:21;;;;;;;0.40;0.30;;;7.90;99.90;;;;;;5065301;28;20457;-90
2022/01/04 09:06:48;;;;;;;0.30;0.10;;;8.00;99.90;;;;;;5054733;28;20544;-87
2022/01/04 09:09:15;;;;;;;0.40;0.30;;;8.20;99.90;;;;;;5058005;28;20448;-88
2022/01/04 09:11:45;;;;;;;0.30;0.10;;;8.30;99.90;;;;;;5070549;28;20505;-87
2022/01/04 09:14:23;;;;;;;0.30;0.20;;;8.20;99.90;;;;;;5070738;28;20442;-86
2022/01/04 09:19:36;;;;;;;0.30;0.20;;;8.30;99.90;;;;;;5070958;28;20418;-89
2022/01/04 09:22:03;;;;;;;0.30;0.10;;;8.50;99.90;;;;;;5069053;28;20504;-86
2022/01/04 09:24:31;;;;;;;0.40;0.40;;;8.50;99.90;;;;;;5059183;28;20818;-86
2022/01/04 09:26:59;;;;;;;0.30;0.10;;;8.60;99.90;;;;;;5050044;28;20579;-87
2022/01/04 09:29:26;;;;;;;0.30;0.13;;;8.70;99.90;;;;;;5050098;28;20920;-90
2022/01/04 09:31:55;;;;;;;0.30;0.10;;;8.70;99.90;;;;;;5050211;28;20471;-86
2022/01/04 09:34:22;;;;;;;0.33;0.17;;;8.80;99.90;;;;;;5054336;28;20952;-87
2022/01/04 09:36:49;;;;;;;0.43;0.30;;;8.80;99.90;;;;;;5052486;28;20492;-88
2022/01/04 09:39:20;;;;;;;0.30;0.10;;;8.70;99.90;;;;;;5056509;28;20488;-87
2022/01/04 09:41:47;;;;;;;0.30;0.20;;;8.50;99.90;;;;;;5070060;28;20440;-87
2022/01/04 09:44:16;;;;;;;0.30;0.20;;;8.40;99.90;;;;;;5057159;28;20967;-87
2022/01/04 09:46:43;;;;;;;0.30;0.20;;;8.50;99.90;;;;;;5069481;28;20532;-88
2022/01/04 09:49:14;;;;;;;0.30;0.10;;;8.70;99.90;;;;;;5061825;28;20514;-87
2022/01/04 09:51:42;;;;;;;0.30;0.20;;;8.60;99.90;;;;;;5067011;28;20528;-86
2022/01/04 09:54:09;;;;;;;2.60;0.87;;;8.60;99.90;;;;;;5065698;28;20974;-89
2022/01/04 09:56:36;;;;;;;3.30;0.77;;;8.50;99.90;;;;;;5063108;28;20540;-88
2022/01/04 09:59:04;;;;;;;0.30;0.20;;;8.60;99.90;;;;;;5070604;28;20501;-86
2022/01/04 10:01:38;;;;;;;0.30;0.20;;;8.50;99.90;;;;;;5072600;28;20486;-87
2022/01/04 10:04:06;;;;;;;0.30;0.20;;;8.50;99.90;;;;;;5058844;28;20440;-87
2022/01/04 10:06:34;;;;;;;0.80;0.43;;;8.50;99.90;;;;;;5049753;28;20460;-90
2022/01/04 10:09:04;;;;;;;0.40;0.20;;;8.40;99.90;;;;;;5054626;28;20773;-86
2022/01/04 10:11:33;;;;;;;0.50;0.50;;;8.30;99.90;;;;;;5070788;28;20902;-87
2022/01/04 10:14:02;;;;;;;0.30;0.10;;;8.30;99.90;;;;;;5069503;28;20919;-89
2022/01/04 10:16:29;;;;;;;0.30;0.10;;;8.30;99.90;;;;;;5068911;28;20532;-87
2022/01/04 10:18:57;;;;;;;0.30;0.17;;;8.20;99.90;;;;;;5070550;28;20503;-88
2022/01/04 10:21:24;;;;;;;0.30;0.10;;;8.20;99.90;;;;;;5058515;28;20517;-88
2022/01/04 10:23:54;;;;;;;0.40;0.23;;;8.20;99.90;;;;;;5050345;28;20451;-87
2022/01/04 10:26:35;;;;;;;0.30;0.20;;;8.20;99.90;;;;;;5049630;28;20521;-88
2022/01/04 10:29:18;;;;;;;0.30;0.20;;;8.10;99.90;;;;;;5049627;28;20446;-89
2022/01/04 10:31:45;;;;;;;0.30;0.10;;;8.20;99.90;;;;;;5050327;28;20449;-87
2022/01/04 10:34:14;;;;;;;0.30;0.20;;;8.50;99.90;;;;;;5062848;28;20496;-86
2022/01/04 10:36:40;;;;;;;0.30;0.20;;;8.60;99.90;;;;;;5050018;28;20545;-87
2022/01/04 10:39:09;;;;;;;1.03;0.93;;;8.70;99.90;;;;;;5050150;28;20478;-87
2022/01/04 10:41:36;;;;;;;0.40;0.40;;;8.80;99.90;;;;;;5050063;28;20452;-89
2022/01/04 10:44:06;;;;;;;0.30;0.20;;;8.80;99.90;;;;;;5049663;28;20463;-86
2022/01/04 10:46:35;;;;;;;0.30;0.20;;;9.00;99.90;;;;;;5050451;28;20453;-86
2022/01/04 10:49:15;;;;;;;0.30;0.20;;;9.00;99.90;;;;;;5049925;28;20460;-86
2022/01/04 10:51:42;;;;;;;0.30;0.20;;;8.80;99.90;;;;;;5049748;28;20444;-86
2022/01/04 10:54:09;;;;;;;0.30;0.20;;;8.70;99.90;;;;;;5049753;28;20495;-88
2022/01/04 10:56:39;;;;;;;0.30;0.20;;;8.40;99.90;;;;;;5049752;28;20475;-87
2022/01/04 10:59:08;;;;;;;0.30;0.20;;;8.20;99.90;;;;;;5068814;28;20501;-87
2022/01/04 11:01:40;;;;;;;0.43;0.33;;;8.00;99.90;;;;;;5069970;28;20436;-83
2022/01/04 11:04:13;;;;;;;0.30;0.10;;;7.90;99.90;;;;;;5058398;28;20987;-85
2022/01/04 11:06:42;;;;;;;0.30;0.20;;;7.90;99.90;;;;;;5069056;28;20797;-88
2022/01/04 11:09:10;;;;;;;0.40;0.20;;;7.70;99.90;;;;;;5065163;28;20497;-88
2022/01/04 11:11:37;;;;;;;0.30;0.20;;;7.60;99.90;;;;;;5070286;28;20513;-86
2022/01/04 11:14:05;;;;;;;0.30;0.10;;;7.50;99.90;;;;;;5071458;28;20438;-86
2022/01/04 11:16:32;;;;;;;0.40;0.20;;;7.60;99.90;;;;;;5072573;28;20481;-85
2022/01/04 11:19:02;;;;;;;0.43;0.37;;;7.60;99.90;;;;;;5063417;28;20461;-85
2022/01/04 11:21:31;;;;;;;0.30;0.10;;;7.50;99.90;;;;;;5053119;28;20459;-86
2022/01/04 11:24:01;;;;;;;0.30;0.20;;;7.60;99.90;;;;;;5065067;28;20463;-87
2022/01/04 11:26:29;;;;;;;1.17;1.17;;;7.50;99.90;;;;;;5073575;28;20451;-86
2022/01/04 11:28:58;;;;;;;0.30;0.20;;;7.50;99.90;;;;;;5072673;28;20517;-85
2022/01/04 11:31:36;;;;;;;0.30;0.10;;;7.60;99.90;;;;;;5072686;28;20439;-87
2022/01/04 11:34:11;;;;;;;0.30;0.20;;;7.70;99.90;;;;;;5052778;28;20947;-85
2022/01/04 11:36:41;;;;;;;0.30;0.20;;;7.90;99.90;;;;;;5052812;28;20493;-86
2022/01/04 11:39:32;;;;;;;0.30;0.20;;;8.10;99.90;;;;;;5051811;28;20499;-87
2022/01/04 11:42:00;;;;;;;0.30;0.20;;;8.20;99.90;;;;;;5071315;28;20444;-85
2022/01/04 11:44:31;;;;;;;0.30;0.10;;;8.10;99.90;;;;;;5071221;28;20468;-84
2022/01/04 11:47:07;;;;;;;0.30;0.10;;;8.10;99.90;;;;;;5058664;28;20466;-88
2022/01/04 11:49:36;;;;;;;1.43;0.90;;;8.10;99.90;;;;;;5052427;28;20446;-84
2022/01/04 11:52:04;;;;;;;0.40;0.30;;;7.90;99.90;;;;;;5052145;28;20480;-85
2022/01/04 11:54:32;;;;;;;0.30;0.10;;;7.90;99.90;;;;;;5052155;28;20593;-87
2022/01/04 11:57:01;;;;;;;0.40;0.30;;;7.90;99.90;;;;;;5051550;28;20522;-86
2022/01/04 11:59:34;;;;;;;0.30;0.10;;;8.00;99.90;;;;;;5051891;28;21008;-85
2022/01/04 12:02:28;;;;;;;0.30;0.10;;;7.70;99.90;;;;;;5051981;28;20780;-89
2022/01/04 12:04:57;;;;;;;0.30;0.10;;;7.70;99.90;;;;;;5067623;28;20972;-88
2022/01/04 12:07:46;;;;;;;1.80;0.60;;;7.90;99.90;;;;;;5068471;28;20528;-86
2022/01/04 12:10:41;;;;;;;0.30;0.20;;;8.00;99.90;;;;;;5068296;28;20443;-87
2022/01/04 12:13:14;;;;;;;0.30;0.20;;;7.80;99.90;;;;;;5067931;28;20518;-86
2022/01/04 12:15:52;;;;;;;0.30;0.20;;;7.90;99.90;;;;;;5068640;28;20467;-85
2022/01/04 12:19:02;;;;;;;0.30;0.20;;;8.00;99.90;;;;;;5069682;28;20439;-86
2022/01/04 12:21:34;;;;;;;0.30;0.10;;;8.00;99.90;;;;;;5067746;28;20443;-85
2022/01/04 12:24:02;;;;;;;0.30;0.10;;;7.90;99.90;;;;;;5067083;28;20470;-85
2022/01/04 12:26:33;;;;;;;0.30;0.20;;;8.10;99.90;;;;;;5070928;28;20513;-88
2022/01/04 12:29:20;;;;;;;0.30;0.10;;;8.20;99.90;;;;;;5071056;28;20514;-86
2022/01/04 12:31:49;;;;;;;0.30;0.20;;;8.30;99.90;;;;;;5069488;28;20508;-85
2022/01/04 12:34:34;;;;;;;0.30;0.10;;;8.40;99.90;;;;;;5069006;28;20837;-85
2022/01/04 12:37:03;;;;;;;0.40;0.27;;;8.40;99.90;;;;;;5068614;28;20491;-86
2022/01/04 12:39:37;;;;;;;0.30;0.20;;;8.30;99.90;;;;;;5063757;28;20460;-86
2022/01/04 12:42:10;;;;;;;0.40;0.30;;;8.40;99.90;;;;;;5054432;28;20459;-88
2022/01/04 12:44:37;;;;;;;0.30;0.20;;;8.40;99.90;;;;;;5066189;28;20952;-85
2022/01/04 12:47:05;;;;;;;0.30;0.20;;;8.50;99.90;;;;;;5050577;28;20449;-85
2022/01/04 12:49:34;;;;;;;0.30;0.10;;;8.60;99.90;;;;;;5069440;28;20501;-85
2022/01/04 12:52:03;;;;;;;0.40;0.20;;;8.70;99.90;;;;;;5067135;28;20459;-87
2022/01/04 12:54:32;;;;;;;0.30;0.10;;;8.80;99.90;;;;;;5062016;28;20451;-87
2022/01/04 12:57:00;;;;;;;0.30;0.10;;;9.00;99.90;;;;;;5066546;28;20507;-86
2022/01/04 12:59:35;;;;;;;0.30;0.20;;;9.00;99.90;;;;;;5048901;28;20491;-90
2022/01/04 13:02:09;;;;;;;0.30;0.17;;;9.00;99.90;;;;;;5048542;28;20443;-88
2022/01/04 13:04:37;;;;;;;0.30;0.10;;;9.20;99.90;;;;;;5065632;28;20991;-87
2022/01/04 13:07:12;;;;;;;0.30;0.20;;;9.20;99.90;;;;;;5063692;28;20496;-87
2022/01/04 13:09:39;;;;;;;0.30;0.20;;;9.20;99.90;;;;;;5061271;28;20447;-87
2022/01/04 13:12:07;;;;;;;0.37;0.30;;;9.30;99.90;;;;;;5068836;28;20537;-87
2022/01/04 13:14:36;;;;;;;0.30;0.20;;;9.30;99.90;;;;;;5070130;28;20923;-88